Time;durP1;ratioP1;P1;durP2;ratioP2;P2;SDS_P1;SDS_P2;PMS_P1;PMS_P2;Temp;Humidity;BMP_temperature;BMP_pressure;BME280_temperature;BME280_humidity;BME280_pressure;Samples;Min_cycle;Max_cycle;Signal;HPM_P1;HPM_P2
2023/10/22 00:01:48;;;;;;;3.80;2.57;;;10.20;99.90;;;;;;5093478;28;20462;-60
2023/10/22 00:04:15;;;;;;;4.30;2.23;;;10.20;99.90;;;;;;5093284;28;20449;-60
2023/10/22 00:06:42;;;;;;;2.60;1.70;;;10.30;99.90;;;;;;5092851;28;20932;-60
2023/10/22 00:09:09;;;;;;;2.37;1.47;;;10.30;99.90;;;;;;5093304;28;20512;-61
2023/10/22 00:11:35;;;;;;;2.60;1.43;;;10.30;99.90;;;;;;5094131;28;20792;-59
2023/10/22 00:14:04;;;;;;;3.10;1.60;;;10.30;99.90;;;;;;5093400;28;20439;-59
2023/10/22 00:16:30;;;;;;;1.00;0.90;;;10.30;99.90;;;;;;5093302;28;20453;-60
2023/10/22 00:18:57;;;;;;;5.10;1.70;;;10.30;99.90;;;;;;5093297;28;20442;-60
2023/10/22 00:21:24;;;;;;;4.13;1.30;;;10.30;99.90;;;;;;5093379;28;20481;-60
2023/10/22 00:23:50;;;;;;;3.37;1.30;;;10.30;99.90;;;;;;5092941;28;20443;-60
2023/10/22 00:26:17;;;;;;;3.00;1.63;;;10.30;99.90;;;;;;5093032;28;20450;-60
2023/10/22 00:28:44;;;;;;;1.70;1.20;;;10.30;99.90;;;;;;5093355;28;20442;-60
2023/10/22 00:31:12;;;;;;;3.07;1.40;;;10.30;99.90;;;;;;5093034;28;20807;-60
2023/10/22 00:33:39;;;;;;;6.80;1.33;;;10.30;99.90;;;;;;5093079;28;20438;-60
2023/10/22 00:36:06;;;;;;;4.13;1.10;;;10.30;99.90;;;;;;5093386;28;20820;-58
2023/10/22 00:38:32;;;;;;;3.00;1.60;;;10.30;99.90;;;;;;5093248;28;20462;-61
2023/10/22 00:40:59;;;;;;;4.77;1.40;;;10.40;99.90;;;;;;5092411;28;20999;-59
2023/10/22 00:43:26;;;;;;;1.50;1.20;;;10.30;99.90;;;;;;5093138;28;20442;-59
2023/10/22 00:45:53;;;;;;;2.80;1.20;;;10.30;99.90;;;;;;5092915;28;20203;-59
2023/10/22 00:48:22;;;;;;;4.47;1.53;;;10.30;99.90;;;;;;5092337;28;20200;-60
2023/10/22 00:50:49;;;;;;;2.07;1.57;;;10.30;99.90;;;;;;5092636;28;20445;-60
2023/10/22 00:53:17;;;;;;;5.13;1.50;;;10.30;99.90;;;;;;5092696;28;20783;-60
2023/10/22 00:55:46;;;;;;;2.97;1.10;;;10.30;99.90;;;;;;5092753;28;20608;-60
2023/10/22 00:58:13;;;;;;;3.23;1.70;;;10.30;99.90;;;;;;5093002;28;20426;-59
2023/10/22 01:00:40;;;;;;;2.33;1.27;;;10.30;99.90;;;;;;5092384;28;20995;-61
2023/10/22 01:03:07;;;;;;;2.67;1.63;;;10.30;99.90;;;;;;5092485;28;20442;-60
2023/10/22 01:05:37;;;;;;;2.13;1.13;;;10.20;99.90;;;;;;5096080;28;20449;-60
2023/10/22 01:08:05;;;;;;;4.07;1.20;;;10.20;99.90;;;;;;5096179;28;20434;-60
2023/10/22 01:10:32;;;;;;;7.13;1.20;;;10.20;99.90;;;;;;5096319;28;20468;-59
2023/10/22 01:12:59;;;;;;;2.80;1.50;;;10.20;99.90;;;;;;5096155;28;20297;-60
2023/10/22 01:15:26;;;;;;;2.17;1.67;;;10.20;99.90;;;;;;5095849;28;20201;-59
2023/10/22 01:17:53;;;;;;;2.80;1.70;;;10.20;99.90;;;;;;5096150;28;20438;-60
2023/10/22 01:20:19;;;;;;;2.30;1.30;;;10.20;99.90;;;;;;5096021;28;20485;-60
2023/10/22 01:22:47;;;;;;;4.97;1.35;;;10.20;99.90;;;;;;5096270;28;20830;-60
2023/10/22 01:25:15;;;;;;;2.55;1.13;;;10.20;99.90;;;;;;5096075;28;20200;-60
2023/10/22 01:27:43;;;;;;;3.57;1.30;;;10.20;99.90;;;;;;5097078;28;20200;-60
2023/10/22 01:30:10;;;;;;;2.77;1.60;;;10.20;99.90;;;;;;5096143;28;20443;-61
2023/10/22 01:32:37;;;;;;;2.83;1.50;;;10.20;99.90;;;;;;5095858;28;20461;-60
2023/10/22 01:35:04;;;;;;;1.63;1.00;;;10.20;99.90;;;;;;5095996;28;20442;-60
2023/10/22 01:37:34;;;;;;;2.15;1.25;;;10.20;99.90;;;;;;5096204;28;20200;-60
2023/10/22 01:40:00;;;;;;;2.90;1.40;;;10.20;99.90;;;;;;5096765;28;20235;-61
2023/10/22 01:42:28;;;;;;;3.23;1.43;;;10.20;99.90;;;;;;5095499;28;20462;-60
2023/10/22 01:44:55;;;;;;;4.60;1.93;;;10.20;99.90;;;;;;5095445;28;20438;-60
2023/10/22 01:47:22;;;;;;;2.50;1.30;;;10.20;99.90;;;;;;5095249;28;20981;-60
2023/10/22 01:49:49;;;;;;;1.70;1.60;;;10.20;99.90;;;;;;5095853;28;20455;-61
2023/10/22 01:52:15;;;;;;;5.53;1.50;;;10.20;99.90;;;;;;5096633;28;20220;-60
2023/10/22 01:54:42;;;;;;;2.50;1.47;;;10.10;99.90;;;;;;5095864;28;20439;-59
2023/10/22 01:57:09;;;;;;;1.67;1.37;;;10.10;99.90;;;;;;5095179;28;20450;-59
2023/10/22 01:59:38;;;;;;;4.77;1.67;;;10.10;99.90;;;;;;5095423;28;20445;-60
2023/10/22 02:02:05;;;;;;;4.40;1.60;;;10.00;99.90;;;;;;5096739;28;20466;-58
2023/10/22 02:04:32;;;;;;;3.92;1.40;;;10.00;99.90;;;;;;5095602;28;20445;-61
2023/10/22 02:06:59;;;;;;;5.77;1.50;;;10.00;99.90;;;;;;5095651;28;20204;-60
2023/10/22 02:09:26;;;;;;;1.95;1.50;;;10.00;99.90;;;;;;5095189;28;20450;-60
2023/10/22 02:11:53;;;;;;;7.30;1.92;;;10.00;99.90;;;;;;5095116;28;20216;-60
2023/10/22 02:14:20;;;;;;;2.17;1.35;;;10.00;99.90;;;;;;5094969;28;20200;-60
2023/10/22 02:16:48;;;;;;;1.92;1.23;;;10.00;99.90;;;;;;5094967;28;20200;-60
2023/10/22 02:19:15;;;;;;;2.70;1.40;;;10.00;99.90;;;;;;5095402;28;20196;-60
2023/10/22 02:21:41;;;;;;;4.60;1.35;;;10.00;99.90;;;;;;5094457;28;20709;-60
2023/10/22 02:24:09;;;;;;;5.47;1.83;;;10.00;99.90;;;;;;5094867;28;20212;-61
2023/10/22 02:26:35;;;;;;;2.78;2.20;;;10.00;99.90;;;;;;5094748;28;20220;-61
2023/10/22 02:29:03;;;;;;;2.42;1.23;;;10.00;99.90;;;;;;5094782;28;20200;-60
2023/10/22 02:31:29;;;;;;;4.68;1.25;;;10.00;99.90;;;;;;5094972;28;20219;-61
2023/10/22 02:34:03;;;;;;;2.20;1.40;;;10.00;99.90;;;;;;5094441;28;20688;-60
2023/10/22 02:36:30;;;;;;;1.83;1.20;;;9.90;99.90;;;;;;5094605;28;20191;-61
2023/10/22 02:38:57;;;;;;;2.17;1.43;;;9.80;99.90;;;;;;5094219;28;20200;-60
2023/10/22 02:41:24;;;;;;;2.57;1.20;;;9.80;99.90;;;;;;5094574;28;21010;-59
2023/10/22 02:43:50;;;;;;;3.73;1.37;;;9.80;99.90;;;;;;5094634;28;20812;-61
2023/10/22 02:46:17;;;;;;;3.63;2.15;;;9.80;99.90;;;;;;5095128;28;20438;-61
2023/10/22 02:48:44;;;;;;;2.90;1.33;;;9.80;99.90;;;;;;5094726;28;20666;-61
2023/10/22 02:51:12;;;;;;;3.73;1.33;;;9.80;99.90;;;;;;5094940;28;20226;-61
2023/10/22 02:53:38;;;;;;;3.50;2.10;;;9.80;99.90;;;;;;5094284;28;20819;-60
2023/10/22 02:56:07;;;;;;;3.65;1.13;;;9.80;99.90;;;;;;5094041;28;20846;-60
2023/10/22 02:58:33;;;;;;;1.85;1.13;;;9.80;99.90;;;;;;5094267;28;20196;-60
2023/10/22 03:01:04;;;;;;;2.90;1.30;;;9.80;99.90;;;;;;5094001;28;20227;-59
2023/10/22 03:03:31;;;;;;;2.35;0.98;;;9.80;99.90;;;;;;5094366;28;20489;-60
2023/10/22 03:05:58;;;;;;;3.60;1.53;;;9.80;99.90;;;;;;5094048;28;20234;-60
2023/10/22 03:08:27;;;;;;;2.45;1.33;;;9.80;99.90;;;;;;5093996;28;20446;-61
2023/10/22 03:10:53;;;;;;;2.90;1.30;;;9.80;99.90;;;;;;5094216;28;20294;-60
2023/10/22 03:13:20;;;;;;;3.47;1.65;;;9.80;99.90;;;;;;5094223;28;20200;-58
2023/10/22 03:15:47;;;;;;;3.50;1.48;;;9.90;99.90;;;;;;5094201;28;20207;-61
2023/10/22 03:18:13;;;;;;;3.90;1.20;;;9.90;99.90;;;;;;5094100;28;20250;-60
2023/10/22 03:20:41;;;;;;;2.50;1.30;;;9.90;99.90;;;;;;5093745;28;20242;-62
2023/10/22 03:23:08;;;;;;;4.03;1.30;;;10.00;99.90;;;;;;5094017;28;20448;-61
2023/10/22 03:25:37;;;;;;;3.70;1.67;;;10.00;99.90;;;;;;5093906;28;20439;-60
2023/10/22 03:28:04;;;;;;;2.67;1.90;;;10.00;99.90;;;;;;5093433;28;20447;-61
2023/10/22 03:30:31;;;;;;;2.10;1.20;;;10.00;99.90;;;;;;5094196;28;20204;-60
2023/10/22 03:32:57;;;;;;;3.00;1.97;;;10.00;99.90;;;;;;5093551;28;20227;-60
2023/10/22 03:35:25;;;;;;;3.13;1.60;;;10.00;99.90;;;;;;5093932;28;20434;-60
2023/10/22 03:37:52;;;;;;;2.30;1.53;;;10.10;99.90;;;;;;5093392;28;20475;-60
2023/10/22 03:40:19;;;;;;;4.50;1.70;;;10.10;99.90;;;;;;5093558;28;20813;-60
2023/10/22 03:42:47;;;;;;;4.60;1.50;;;10.10;99.90;;;;;;5093123;28;20473;-60
2023/10/22 03:45:14;;;;;;;5.80;1.87;;;10.10;99.90;;;;;;5093787;28;20530;-60
2023/10/22 03:47:41;;;;;;;3.80;1.43;;;10.10;99.90;;;;;;5093418;28;20950;-59
2023/10/22 03:50:08;;;;;;;3.60;1.30;;;10.00;99.90;;;;;;5093519;28;20438;-60
2023/10/22 03:52:35;;;;;;;5.13;1.50;;;10.00;99.90;;;;;;5093365;28;20212;-59
2023/10/22 03:55:03;;;;;;;2.50;1.23;;;10.00;99.90;;;;;;5093516;28;20504;-61
2023/10/22 03:57:31;;;;;;;4.30;1.70;;;10.00;99.90;;;;;;5093262;28;20959;-61
2023/10/22 03:59:59;;;;;;;2.60;1.30;;;10.00;99.90;;;;;;5093460;28;20449;-60
2023/10/22 04:02:26;;;;;;;2.87;1.37;;;10.00;99.90;;;;;;5093612;28;20489;-60
2023/10/22 04:04:54;;;;;;;5.90;1.47;;;10.10;99.90;;;;;;5093316;28;20438;-61
2023/10/22 04:07:20;;;;;;;2.60;1.47;;;10.10;99.90;;;;;;5092826;28;20940;-60
2023/10/22 04:12:24;;;;;;;2.67;1.37;;;10.10;99.90;;;;;;5111338;27;20620;-60
2023/10/22 04:14:50;;;;;;;2.90;1.40;;;10.10;99.90;;;;;;5111525;28;20448;-60
2023/10/22 04:17:17;;;;;;;3.47;1.27;;;10.10;99.90;;;;;;5111296;28;20806;-61
2023/10/22 04:19:44;;;;;;;3.37;1.53;;;10.10;99.90;;;;;;5111384;28;20437;-61
2023/10/22 04:22:11;;;;;;;2.13;0.97;;;10.10;99.90;;;;;;5111191;28;20472;-61
2023/10/22 04:24:37;;;;;;;1.77;1.17;;;10.10;99.90;;;;;;5111206;28;20437;-60
2023/10/22 04:27:05;;;;;;;4.60;1.20;;;10.20;99.90;;;;;;5111634;28;20438;-60
2023/10/22 04:29:33;;;;;;;2.23;1.17;;;10.20;99.90;;;;;;5111028;28;20931;-61
2023/10/22 04:32:00;;;;;;;1.63;1.20;;;10.20;99.90;;;;;;5111075;28;20485;-61
2023/10/22 04:34:27;;;;;;;2.30;1.00;;;10.10;99.90;;;;;;5111446;28;20449;-59
2023/10/22 04:36:54;;;;;;;1.97;1.33;;;10.20;99.90;;;;;;5111155;28;20446;-60
2023/10/22 04:39:20;;;;;;;1.77;1.20;;;10.10;99.90;;;;;;5111773;28;20448;-62
2023/10/22 04:41:47;;;;;;;3.70;1.53;;;10.10;99.90;;;;;;5111698;28;20216;-61
2023/10/22 04:44:14;;;;;;;2.47;1.60;;;10.10;99.90;;;;;;5111927;28;20442;-60
2023/10/22 04:46:42;;;;;;;5.33;1.37;;;10.10;99.90;;;;;;5111038;28;20437;-60
2023/10/22 04:49:08;;;;;;;2.13;1.20;;;10.10;99.90;;;;;;5110871;28;20442;-61
2023/10/22 04:51:37;;;;;;;2.33;1.33;;;10.10;99.90;;;;;;5110665;28;20481;-61
2023/10/22 04:54:04;;;;;;;2.63;1.77;;;10.10;99.90;;;;;;5111188;28;20448;-60
2023/10/22 04:56:31;;;;;;;4.23;1.40;;;10.00;99.90;;;;;;5110654;28;20449;-61
2023/10/22 04:58:58;;;;;;;2.70;1.25;;;10.00;99.90;;;;;;5110279;28;20529;-61
2023/10/22 05:01:24;;;;;;;2.07;1.20;;;10.00;99.90;;;;;;5109500;28;20227;-60
2023/10/22 05:03:53;;;;;;;4.07;1.17;;;10.00;99.90;;;;;;5110324;28;20488;-61
2023/10/22 05:06:20;;;;;;;2.87;1.43;;;10.00;99.90;;;;;;5110965;28;20453;-61
2023/10/22 05:08:46;;;;;;;6.17;1.30;;;10.00;99.90;;;;;;5110186;28;20449;-60
2023/10/22 05:11:13;;;;;;;3.30;1.50;;;9.90;99.90;;;;;;5109746;28;20491;-61
2023/10/22 05:13:40;;;;;;;2.33;1.30;;;9.90;99.90;;;;;;5110151;28;20434;-61
2023/10/22 05:16:09;;;;;;;2.40;1.20;;;9.90;99.90;;;;;;5110217;28;20442;-61
2023/10/22 05:18:37;;;;;;;1.70;1.10;;;9.90;99.90;;;;;;5110182;28;20449;-62
2023/10/22 05:21:07;;;;;;;3.00;1.23;;;9.80;99.90;;;;;;5109913;28;20496;-60
2023/10/22 05:23:35;;;;;;;2.95;1.25;;;9.80;99.90;;;;;;5097621;28;20496;-59
2023/10/22 05:26:06;;;;;;;2.80;1.50;;;9.80;99.90;;;;;;5096703;28;20208;-61
2023/10/22 05:28:33;;;;;;;2.13;1.47;;;9.80;99.90;;;;;;5096536;28;20442;-61
2023/10/22 05:31:00;;;;;;;3.40;1.30;;;9.80;99.90;;;;;;5096083;28;20515;-61
2023/10/22 05:33:26;;;;;;;2.22;0.93;;;9.80;99.90;;;;;;5096737;28;20197;-61
2023/10/22 05:35:53;;;;;;;4.20;1.10;;;9.80;99.90;;;;;;5096036;28;20200;-61
2023/10/22 05:38:21;;;;;;;3.90;1.40;;;9.80;99.90;;;;;;5096427;28;20443;-60
2023/10/22 05:40:48;;;;;;;2.95;1.25;;;9.80;99.90;;;;;;5095897;28;20207;-59
2023/10/22 05:43:15;;;;;;;3.53;1.27;;;9.80;99.90;;;;;;5096113;28;20212;-61
2023/10/22 05:45:41;;;;;;;1.97;0.83;;;9.80;99.90;;;;;;5096268;28;20212;-61
2023/10/22 05:48:08;;;;;;;2.37;1.47;;;9.80;99.90;;;;;;5095967;28;20465;-61
2023/10/22 05:50:38;;;;;;;1.67;1.17;;;9.80;99.90;;;;;;5095970;28;20441;-61
2023/10/22 05:53:04;;;;;;;7.38;1.95;;;9.80;99.90;;;;;;5096191;28;20463;-60
2023/10/22 05:55:32;;;;;;;3.63;1.42;;;9.80;99.90;;;;;;5095923;28;20196;-60
2023/10/22 05:57:59;;;;;;;4.30;1.50;;;9.80;99.90;;;;;;5096269;28;20201;-60
2023/10/22 06:00:26;;;;;;;2.97;1.17;;;9.80;99.90;;;;;;5095981;28;20208;-60
2023/10/22 06:02:53;;;;;;;3.43;1.27;;;9.80;99.90;;;;;;5095273;28;20778;-60
2023/10/22 06:05:20;;;;;;;2.35;1.10;;;9.80;99.90;;;;;;5095785;28;20446;-61
2023/10/22 06:07:46;;;;;;;2.08;1.15;;;9.80;99.90;;;;;;5095657;28;20207;-60
2023/10/22 06:10:14;;;;;;;5.13;1.55;;;9.80;99.90;;;;;;5095250;28;20200;-61
2023/10/22 06:12:42;;;;;;;1.33;1.17;;;9.80;99.90;;;;;;5095693;28;20228;-61
2023/10/22 06:15:09;;;;;;;2.40;1.07;;;9.70;99.90;;;;;;5095153;28;20203;-60
2023/10/22 06:17:36;;;;;;;2.80;1.05;;;9.80;99.90;;;;;;5095099;28;20941;-59
2023/10/22 06:20:05;;;;;;;3.77;1.63;;;9.80;99.90;;;;;;5095253;28;20204;-59
2023/10/22 06:22:32;;;;;;;1.70;0.95;;;9.80;99.90;;;;;;5095005;28;20450;-61
2023/10/22 06:24:58;;;;;;;1.75;1.13;;;9.80;99.90;;;;;;5094815;28;20575;-62
2023/10/22 06:27:25;;;;;;;4.77;1.67;;;9.80;99.90;;;;;;5095128;28;20231;-61
2023/10/22 06:29:53;;;;;;;4.83;1.10;;;9.90;99.90;;;;;;5094969;28;20445;-62
2023/10/22 06:32:20;;;;;;;5.23;1.33;;;9.90;99.90;;;;;;5094978;28;20535;-61
2023/10/22 06:34:47;;;;;;;2.97;1.57;;;9.90;99.90;;;;;;5093994;28;20442;-61
2023/10/22 06:37:14;;;;;;;5.00;1.30;;;9.90;99.90;;;;;;5095340;28;20442;-62
2023/10/22 06:39:40;;;;;;;3.90;1.58;;;9.90;99.90;;;;;;5094714;28;20442;-60
2023/10/22 06:42:07;;;;;;;1.93;1.23;;;10.00;99.90;;;;;;5095029;28;20221;-61
2023/10/22 06:44:34;;;;;;;3.40;1.30;;;10.00;99.90;;;;;;5095117;28;20461;-60
2023/10/22 06:47:02;;;;;;;7.30;2.70;;;10.00;99.90;;;;;;5095400;28;20446;-61
2023/10/22 06:49:28;;;;;;;2.83;1.60;;;10.10;99.90;;;;;;5096101;28;20449;-60
2023/10/22 06:51:55;;;;;;;3.92;2.17;;;10.10;99.90;;;;;;5095352;28;20229;-61
2023/10/22 06:54:22;;;;;;;1.40;1.17;;;10.10;99.90;;;;;;5095699;28;20679;-61
2023/10/22 06:56:49;;;;;;;3.00;1.20;;;10.20;99.90;;;;;;5095689;28;20500;-60
2023/10/22 06:59:16;;;;;;;3.90;1.67;;;10.20;99.90;;;;;;5094992;28;20434;-59
2023/10/22 07:01:42;;;;;;;3.20;1.50;;;10.30;99.90;;;;;;5094679;28;20524;-59
2023/10/22 07:04:10;;;;;;;1.93;1.20;;;10.40;99.90;;;;;;5094643;28;20445;-60
2023/10/22 07:06:37;;;;;;;2.57;1.50;;;10.50;99.90;;;;;;5094415;28;20446;-61
2023/10/22 07:09:04;;;;;;;6.50;1.77;;;10.60;99.90;;;;;;5094299;28;20448;-61
2023/10/22 07:11:33;;;;;;;2.83;1.30;;;10.80;99.90;;;;;;5093760;28;20494;-61
2023/10/22 07:14:00;;;;;;;4.50;1.87;;;11.00;99.90;;;;;;5094361;28;20511;-60
2023/10/22 07:16:26;;;;;;;3.43;1.20;;;11.20;99.90;;;;;;5094355;28;20451;-60
2023/10/22 07:18:53;;;;;;;4.67;1.33;;;11.40;99.90;;;;;;5094865;28;20443;-61
2023/10/22 07:21:21;;;;;;;4.17;3.07;;;11.60;99.90;;;;;;5094397;28;20466;-60
2023/10/22 07:23:48;;;;;;;2.30;1.20;;;11.70;99.90;;;;;;5094259;28;21033;-60
2023/10/22 07:26:14;;;;;;;3.60;1.50;;;11.70;99.90;;;;;;5094092;28;20434;-60
2023/10/22 07:28:42;;;;;;;3.00;1.03;;;11.80;99.90;;;;;;5093759;28;20928;-59
2023/10/22 07:31:09;;;;;;;3.13;1.20;;;11.80;99.90;;;;;;5093647;28;20466;-60
2023/10/22 07:33:36;;;;;;;4.00;1.23;;;11.90;99.90;;;;;;5094069;28;20564;-60
2023/10/22 07:36:04;;;;;;;2.47;1.27;;;12.00;99.90;;;;;;5093573;28;20954;-60
2023/10/22 07:38:32;;;;;;;2.63;1.30;;;12.10;99.90;;;;;;5093965;28;20446;-59
2023/10/22 07:40:59;;;;;;;3.10;1.10;;;12.20;99.90;;;;;;5094099;28;20442;-61
2023/10/22 07:43:28;;;;;;;3.07;1.40;;;12.10;99.90;;;;;;5093692;28;20801;-61
2023/10/22 07:45:58;;;;;;;4.13;1.40;;;12.10;99.90;;;;;;5100185;28;20453;-61
2023/10/22 07:48:25;;;;;;;3.97;1.30;;;12.10;99.90;;;;;;5097156;28;20450;-61
2023/10/22 07:50:52;;;;;;;4.90;1.70;;;12.10;99.90;;;;;;5096859;28;20810;-60
2023/10/22 07:53:18;;;;;;;2.57;1.30;;;12.10;99.90;;;;;;5096369;28;20501;-61
2023/10/22 07:55:47;;;;;;;6.23;1.57;;;12.10;99.90;;;;;;5094317;28;20954;-61
2023/10/22 07:58:13;;;;;;;5.30;1.30;;;12.20;99.90;;;;;;5094127;28;20515;-61
2023/10/22 08:00:40;;;;;;;2.57;1.03;;;12.10;99.90;;;;;;5094185;28;20445;-61
2023/10/22 08:03:07;;;;;;;2.60;1.47;;;12.20;99.90;;;;;;5094831;28;20450;-60
2023/10/22 08:05:34;;;;;;;1.50;1.33;;;12.20;99.90;;;;;;5094792;28;20449;-61
2023/10/22 08:08:00;;;;;;;3.63;1.20;;;12.30;99.90;;;;;;5093731;28;20449;-61
2023/10/22 08:10:28;;;;;;;1.70;1.03;;;12.40;99.90;;;;;;5094300;28;20446;-60
2023/10/22 08:12:56;;;;;;;3.93;1.47;;;12.50;99.90;;;;;;5094040;28;20524;-60
2023/10/22 08:15:22;;;;;;;2.00;1.47;;;12.70;99.90;;;;;;5094465;28;20443;-60
2023/10/22 08:17:49;;;;;;;1.50;1.03;;;12.80;99.90;;;;;;5101028;28;20441;-60
2023/10/22 08:20:16;;;;;;;3.53;1.63;;;13.00;99.90;;;;;;5099219;28;20789;-60
2023/10/22 08:22:43;;;;;;;2.50;1.10;;;13.10;99.90;;;;;;5096676;28;20528;-60
2023/10/22 08:25:09;;;;;;;2.40;1.00;;;13.30;99.90;;;;;;5098728;28;20453;-60
2023/10/22 08:27:36;;;;;;;3.90;1.30;;;13.30;99.90;;;;;;5100994;28;20438;-59
2023/10/22 08:30:06;;;;;;;3.57;1.03;;;13.40;99.90;;;;;;5098825;28;20525;-60
2023/10/22 08:32:33;;;;;;;1.77;1.10;;;13.50;99.90;;;;;;5096376;28;20489;-60
2023/10/22 08:35:00;;;;;;;1.27;0.83;;;13.50;99.90;;;;;;5093735;28;20450;-60
2023/10/22 08:37:27;;;;;;;2.20;1.00;;;13.50;99.90;;;;;;5094319;28;20878;-61
2023/10/22 08:39:53;;;;;;;1.93;1.00;;;13.50;99.90;;;;;;5093286;28;20438;-60
2023/10/22 08:42:24;;;;;;;3.37;1.03;;;13.50;99.90;;;;;;5093445;28;20463;-60
2023/10/22 08:44:52;;;;;;;4.50;1.50;;;13.50;99.90;;;;;;5093612;28;20430;-60
2023/10/22 08:47:20;;;;;;;2.07;0.80;;;13.50;99.90;;;;;;5093152;28;20809;-61
2023/10/22 08:49:49;;;;;;;2.30;1.03;;;13.50;99.90;;;;;;5093083;28;20434;-60
2023/10/22 08:52:15;;;;;;;2.70;1.10;;;13.50;99.90;;;;;;5093210;28;20527;-61
2023/10/22 08:54:45;;;;;;;2.40;1.10;;;13.60;99.90;;;;;;5093074;28;20445;-61
2023/10/22 08:57:12;;;;;;;2.87;1.20;;;13.60;99.90;;;;;;5093163;28;20485;-61
2023/10/22 08:59:38;;;;;;;2.33;1.20;;;13.60;99.90;;;;;;5096981;28;20438;-61
2023/10/22 09:02:11;;;;;;;3.43;1.13;;;13.70;99.90;;;;;;5096633;28;20457;-61
2023/10/22 09:04:40;;;;;;;1.77;1.33;;;13.70;99.90;;;;;;5098245;28;20818;-60
2023/10/22 09:07:07;;;;;;;1.70;1.00;;;13.80;99.90;;;;;;5102966;28;20438;-60
2023/10/22 09:09:35;;;;;;;3.07;1.20;;;13.90;99.90;;;;;;5105305;28;20442;-60
2023/10/22 09:12:02;;;;;;;5.97;2.80;;;13.90;99.90;;;;;;5104455;28;20512;-60
2023/10/22 09:14:30;;;;;;;2.33;1.10;;;13.90;99.90;;;;;;5100454;28;20474;-61
2023/10/22 09:16:57;;;;;;;7.40;2.90;;;14.00;99.90;;;;;;5098361;28;20496;-59
2023/10/22 09:19:37;;;;;;;5.90;1.57;;;14.10;99.90;;;;;;5099789;28;20494;-60
2023/10/22 09:22:05;;;;;;;1.67;1.07;;;14.20;99.90;;;;;;5098552;28;20458;-59
2023/10/22 09:24:33;;;;;;;1.50;1.00;;;14.30;99.90;;;;;;5098520;28;20835;-60
2023/10/22 09:27:00;;;;;;;2.63;1.90;;;14.40;99.90;;;;;;5098934;28;20961;-59
2023/10/22 09:29:27;;;;;;;1.90;1.10;;;14.50;99.90;;;;;;5097928;28;20434;-61
2023/10/22 09:31:55;;;;;;;3.27;1.40;;;14.60;99.90;;;;;;5097838;28;20465;-61
2023/10/22 09:34:26;;;;;;;2.77;1.10;;;14.70;99.90;;;;;;5099858;28;20438;-61
2023/10/22 09:36:53;;;;;;;1.70;1.37;;;14.80;99.90;;;;;;5100901;28;20465;-61
2023/10/22 09:39:37;;;;;;;2.03;1.00;;;14.90;99.90;;;;;;5100518;28;20472;-62
2023/10/22 09:42:05;;;;;;;1.87;1.23;;;14.90;99.90;;;;;;5100321;28;20458;-60
2023/10/22 09:44:32;;;;;;;3.10;1.13;;;15.10;99.90;;;;;;5098771;28;20480;-60
2023/10/22 09:47:02;;;;;;;2.53;1.10;;;15.10;99.90;;;;;;5099693;28;20443;-59
2023/10/22 09:49:30;;;;;;;1.80;1.00;;;15.20;99.90;;;;;;5101173;28;20449;-61
2023/10/22 09:52:00;;;;;;;2.27;0.83;;;15.40;99.90;;;;;;5100481;28;20494;-61
2023/10/22 09:54:38;;;;;;;1.10;1.00;;;15.50;99.90;;;;;;5098616;28;20442;-61
2023/10/22 09:57:08;;;;;;;1.80;1.17;;;15.60;99.90;;;;;;5096710;28;20423;-61
2023/10/22 09:59:36;;;;;;;2.10;1.40;;;15.70;99.90;;;;;;5096171;28;20446;-60
2023/10/22 10:02:04;;;;;;;9.07;1.20;;;15.70;99.90;;;;;;5096488;28;20469;-61
2023/10/22 10:04:33;;;;;;;2.20;1.00;;;15.80;99.90;;;;;;5096732;28;20470;-60
2023/10/22 10:07:02;;;;;;;2.43;1.27;;;15.80;99.90;;;;;;5096256;28;20854;-61
2023/10/22 10:09:30;;;;;;;1.30;0.73;;;15.80;99.90;;;;;;5096346;28;20555;-60
2023/10/22 10:12:01;;;;;;;2.93;1.00;;;15.70;99.90;;;;;;5096206;28;20474;-61
2023/10/22 10:14:42;;;;;;;1.27;0.90;;;15.70;99.90;;;;;;5095956;28;20427;-61
2023/10/22 10:17:10;;;;;;;1.60;0.70;;;15.70;99.90;;;;;;5095959;28;20469;-61
2023/10/22 10:19:37;;;;;;;2.30;1.03;;;15.60;99.90;;;;;;5095274;28;20449;-60
2023/10/22 10:22:04;;;;;;;2.57;0.90;;;15.60;99.90;;;;;;5095261;28;20557;-60
2023/10/22 10:24:32;;;;;;;4.47;1.30;;;15.60;99.90;;;;;;5095733;28;20450;-60
2023/10/22 10:27:30;;;;;;;2.20;0.90;;;15.50;99.90;;;;;;5095701;28;20451;-61
2023/10/22 10:30:20;;;;;;;2.30;1.27;;;15.50;99.90;;;;;;5040939;28;20457;-60
2023/10/22 10:32:49;;;;;;;1.37;0.90;;;15.60;99.90;;;;;;5104607;28;20485;-60
2023/10/22 10:35:16;;;;;;;2.00;1.07;;;15.60;99.90;;;;;;5099940;28;20534;-60
2023/10/22 10:38:16;;;;;;;3.43;0.80;;;15.70;99.90;;;;;;5096642;28;20520;-59
2023/10/22 10:40:44;;;;;;;1.97;1.30;;;15.70;99.90;;;;;;5096826;28;20415;-62
2023/10/22 10:43:12;;;;;;;1.20;1.00;;;15.80;99.90;;;;;;5096273;28;20461;-60
2023/10/22 10:45:41;;;;;;;1.40;1.30;;;15.80;99.90;;;;;;5097296;28;20430;-60
2023/10/22 10:48:28;;;;;;;1.53;1.20;;;15.90;99.90;;;;;;5096443;28;20493;-60
2023/10/22 10:51:15;;;;;;;3.07;1.30;;;16.00;99.90;;;;;;5094724;28;20494;-61
2023/10/22 10:54:17;;;;;;;1.27;0.80;;;16.10;99.30;;;;;;5094726;28;20478;-60
2023/10/22 10:56:52;;;;;;;1.23;0.73;;;16.20;98.50;;;;;;5094655;28;20450;-61
2023/10/22 10:59:28;;;;;;;1.93;0.87;;;16.40;97.90;;;;;;5095259;28;20499;-61
2023/10/22 11:02:03;;;;;;;2.53;1.30;;;16.50;97.00;;;;;;5094430;28;20457;-61
2023/10/22 11:04:30;;;;;;;3.97;0.97;;;16.50;96.10;;;;;;5094769;28;20460;-59
2023/10/22 11:06:57;;;;;;;1.67;1.30;;;16.50;95.30;;;;;;5094437;28;20434;-61
2023/10/22 11:09:24;;;;;;;1.93;1.33;;;16.50;94.50;;;;;;5094161;28;20944;-61
2023/10/22 11:11:59;;;;;;;4.93;1.73;;;16.40;93.70;;;;;;5094068;28;20473;-61
2023/10/22 11:14:27;;;;;;;1.20;1.00;;;16.40;93.10;;;;;;5094233;28;20531;-61
2023/10/22 11:16:57;;;;;;;3.20;1.50;;;16.40;92.60;;;;;;5094116;28;21000;-61
2023/10/22 11:19:25;;;;;;;3.70;1.97;;;16.40;91.80;;;;;;5094450;28;20439;-61
2023/10/22 11:21:54;;;;;;;1.43;1.10;;;16.40;90.80;;;;;;5093890;28;20473;-62
2023/10/22 11:24:22;;;;;;;4.50;2.30;;;16.30;90.50;;;;;;5094502;28;20451;-60
2023/10/22 11:26:50;;;;;;;2.70;2.07;;;16.40;90.00;;;;;;5094848;28;20442;-60
2023/10/22 11:29:18;;;;;;;2.40;1.83;;;16.40;89.30;;;;;;5094392;28;20446;-61
2023/10/22 11:31:57;;;;;;;2.57;1.37;;;16.40;88.50;;;;;;5094434;28;20466;-61
2023/10/22 11:34:24;;;;;;;2.50;1.60;;;16.40;87.50;;;;;;5094467;28;20462;-61
2023/10/22 11:36:57;;;;;;;2.60;1.37;;;16.40;87.30;;;;;;5093828;28;20908;-60
2023/10/22 11:39:24;;;;;;;1.43;0.70;;;16.50;87.00;;;;;;5094031;28;20431;-60
2023/10/22 11:41:57;;;;;;;1.83;1.10;;;16.60;86.50;;;;;;5093789;28;20975;-60
2023/10/22 11:44:31;;;;;;;3.67;1.30;;;16.60;85.50;;;;;;5094611;28;20563;-61
2023/10/22 11:47:00;;;;;;;1.60;0.97;;;16.60;84.10;;;;;;5095030;28;20426;-61
2023/10/22 11:49:26;;;;;;;1.90;1.30;;;16.60;82.40;;;;;;5094410;28;20441;-61
2023/10/22 11:51:54;;;;;;;1.43;0.87;;;16.40;81.40;;;;;;5094350;28;20497;-61
2023/10/22 11:54:35;;;;;;;1.60;1.10;;;16.40;80.70;;;;;;5094251;28;20485;-61
2023/10/22 11:57:02;;;;;;;1.57;1.47;;;16.30;79.90;;;;;;5095419;28;20426;-60
2023/10/22 11:59:29;;;;;;;2.73;1.20;;;16.20;78.50;;;;;;5095429;28;20461;-59
2023/10/22 12:01:56;;;;;;;1.40;1.07;;;16.20;77.90;;;;;;5095248;28;20865;-60
2023/10/22 12:04:24;;;;;;;2.43;0.90;;;16.20;77.70;;;;;;5094974;28;20435;-61
2023/10/22 12:06:52;;;;;;;1.50;1.00;;;16.10;77.10;;;;;;5095771;28;20468;-61
2023/10/22 12:09:18;;;;;;;1.50;1.07;;;16.10;76.60;;;;;;5095153;28;20538;-61
2023/10/22 12:11:45;;;;;;;0.90;0.70;;;16.10;76.20;;;;;;5094747;28;20482;-59
2023/10/22 12:14:12;;;;;;;1.13;1.03;;;16.10;75.90;;;;;;5095002;28;20485;-60
2023/10/22 12:16:39;;;;;;;2.03;0.50;;;16.10;75.60;;;;;;5095093;28;20450;-62
2023/10/22 12:19:05;;;;;;;2.30;1.30;;;16.10;75.40;;;;;;5095323;28;20445;-61
2023/10/22 12:21:33;;;;;;;1.93;1.40;;;16.10;75.10;;;;;;5096217;28;20485;-61
2023/10/22 12:24:00;;;;;;;2.17;1.30;;;16.10;74.50;;;;;;5096886;28;20438;-61
2023/10/22 12:26:27;;;;;;;1.83;1.20;;;16.20;74.00;;;;;;5097465;28;20446;-60
2023/10/22 12:28:54;;;;;;;1.70;0.90;;;16.20;73.10;;;;;;5097139;28;20450;-61
2023/10/22 12:31:21;;;;;;;1.30;0.90;;;16.20;72.60;;;;;;5096875;28;20458;-61
2023/10/22 12:33:47;;;;;;;1.20;0.60;;;16.20;71.90;;;;;;5099931;28;20477;-60
2023/10/22 12:36:14;;;;;;;1.90;0.87;;;16.30;71.40;;;;;;5100652;28;20897;-61
2023/10/22 12:38:42;;;;;;;1.40;1.03;;;16.20;70.30;;;;;;5101281;28;20446;-59
2023/10/22 12:41:09;;;;;;;1.70;0.90;;;16.20;70.00;;;;;;5102037;28;20535;-60
2023/10/22 12:43:36;;;;;;;3.43;1.00;;;16.20;69.80;;;;;;5101032;28;20443;-60
2023/10/22 12:46:03;;;;;;;1.87;1.17;;;16.20;70.00;;;;;;5103442;28;20442;-61
2023/10/22 12:48:30;;;;;;;1.73;0.83;;;16.30;70.00;;;;;;5104721;28;20534;-60
2023/10/22 12:50:57;;;;;;;0.90;0.80;;;16.30;69.70;;;;;;5108125;28;20449;-60
2023/10/22 12:53:23;;;;;;;1.67;0.80;;;16.40;69.50;;;;;;5106699;28;20474;-60
2023/10/22 12:55:55;;;;;;;1.53;0.77;;;16.40;69.10;;;;;;5108292;28;20449;-59